Time;durP1;ratioP1;P1;durP2;ratioP2;P2;SDS_P1;SDS_P2;PMS_P1;PMS_P2;Temp;Humidity;BMP_temperature;BMP_pressure;BME280_temperature;BME280_humidity;BME280_pressure;Samples;Min_cycle;Max_cycle;Signal;HPM_P1;HPM_P2
2023/08/04 00:00:33;;;;;;;11.40;7.03;;;;;;;24.79;100.00;100815.81;2519547;23;20151;-62
2023/08/04 00:01:34;;;;;;;8.93;7.00;;;;;;;24.82;100.00;100808.34;2519760;23;20237;-62
2023/08/04 00:02:34;;;;;;;7.90;6.47;;;;;;;24.79;100.00;100815.03;2520439;23;20229;-62
2023/08/04 00:03:35;;;;;;;7.47;6.33;;;;;;;24.81;100.00;100815.28;2520579;23;20210;-62
2023/08/04 00:04:35;;;;;;;7.50;6.70;;;;;;;24.82;100.00;100819.66;2520512;23;20159;-62
2023/08/04 00:05:36;;;;;;;7.13;6.43;;;;;;;24.54;100.00;100768.81;2520660;23;20182;-62
2023/08/04 00:06:36;;;;;;;7.97;6.60;;;;;;;24.84;100.00;100820.69;2520599;23;20178;-62
2023/08/04 00:07:37;;;;;;;7.47;6.77;;;;;;;24.82;100.00;100816.84;2520006;23;20551;-62
2023/08/04 00:08:38;;;;;;;8.50;6.77;;;;;;;24.80;100.00;100817.34;2520457;23;20568;-62
2023/08/04 00:09:38;;;;;;;9.13;6.80;;;;;;;24.73;100.00;100820.75;2520588;23;20507;-62
2023/08/04 00:10:39;;;;;;;6.90;6.20;;;;;;;24.54;100.00;100790.69;2519484;23;20183;-62
2023/08/04 00:11:39;;;;;;;8.27;6.63;;;;;;;24.67;100.00;100820.00;2520419;23;20251;-61
2023/08/04 00:12:39;;;;;;;7.13;6.43;;;;;;;24.46;100.00;100787.66;2520519;23;20158;-62
2023/08/04 00:13:40;;;;;;;7.23;6.53;;;;;;;24.70;100.00;100823.84;2520262;23;20162;-62
2023/08/04 00:14:40;;;;;;;7.50;6.80;;;;;;;24.45;100.00;100774.78;2520593;23;20241;-62
2023/08/04 00:15:41;;;;;;;7.17;6.47;;;;;;;24.67;100.00;100814.34;2507828;23;20544;-62
2023/08/04 00:16:41;;;;;;;9.63;6.57;;;;;;;24.74;100.00;100825.13;2507862;23;20152;-62
2023/08/04 00:17:41;;;;;;;9.50;6.50;;;;;;;24.75;100.00;100823.81;2520139;23;20226;-62
2023/08/04 00:18:42;;;;;;;8.13;6.37;;;;;;;24.74;100.00;100822.28;2519917;23;20166;-62
2023/08/04 00:19:43;;;;;;;8.17;7.00;;;;;;;24.33;100.00;100770.50;2519883;23;20645;-63
2023/08/04 00:20:43;;;;;;;7.20;6.50;;;;;;;24.67;100.00;100825.66;2519671;23;20602;-62
2023/08/04 00:21:44;;;;;;;8.43;6.83;;;;;;;24.69;100.00;100823.09;2520589;23;20543;-62
2023/08/04 00:22:44;;;;;;;7.53;6.73;;;;;;;24.73;100.00;100819.97;2519678;23;20182;-61
2023/08/04 00:23:45;;;;;;;7.43;6.37;;;;;;;24.67;100.00;100811.50;2520638;23;20155;-62
2023/08/04 00:24:45;;;;;;;7.43;6.30;;;;;;;24.77;100.00;100820.47;2520562;23;20206;-62
2023/08/04 00:25:45;;;;;;;8.10;6.40;;;;;;;24.60;100.00;100797.91;2520473;23;20216;-62
2023/08/04 00:26:46;;;;;;;6.53;5.93;;;;;;;24.79;100.00;100817.88;2520258;23;20242;-62
2023/08/04 00:27:46;;;;;;;11.53;6.77;;;;;;;24.81;100.00;100823.78;2520065;23;20209;-62
2023/08/04 00:28:46;;;;;;;8.00;5.97;;;;;;;24.82;100.00;100814.75;2507895;23;20163;-62
2023/08/04 00:29:47;;;;;;;8.27;6.33;;;;;;;24.67;100.00;100791.66;2507980;23;20158;-63
2023/08/04 00:30:48;;;;;;;10.67;6.43;;;;;;;24.73;100.00;100802.97;2519632;23;20162;-63
2023/08/04 00:31:49;;;;;;;6.53;5.93;;;;;;;24.83;100.00;100824.78;2520780;23;20238;-62
2023/08/04 00:32:49;;;;;;;9.20;6.30;;;;;;;24.79;100.00;100810.16;2520309;23;20151;-62
2023/08/04 00:33:50;;;;;;;9.07;6.57;;;;;;;24.69;100.00;100811.78;2520246;23;20242;-62
2023/08/04 00:34:50;;;;;;;6.80;6.10;;;;;;;24.85;100.00;100815.75;2520351;23;20151;-63
2023/08/04 00:35:51;;;;;;;7.07;6.20;;;;;;;24.51;100.00;100769.09;2520574;23;20668;-62
2023/08/04 00:36:51;;;;;;;9.80;6.30;;;;;;;24.76;100.00;100808.34;2520468;23;20155;-62
2023/08/04 00:37:51;;;;;;;7.00;6.30;;;;;;;24.84;100.00;100823.53;2520161;23;20151;-62
2023/08/04 00:38:52;;;;;;;9.73;6.80;;;;;;;24.83;100.00;100826.88;2520610;23;20156;-62
2023/08/04 00:39:52;;;;;;;8.37;6.50;;;;;;;24.43;100.00;100763.22;2520669;23;20158;-62
2023/08/04 00:40:53;;;;;;;8.37;6.70;;;;;;;24.82;100.00;100825.34;2519720;23;20162;-62
2023/08/04 00:41:53;;;;;;;7.77;5.90;;;;;;;24.80;100.00;100823.03;2520507;23;20158;-62
2023/08/04 00:42:53;;;;;;;7.37;6.57;;;;;;;24.67;100.00;100811.50;2520229;23;20151;-62
2023/08/04 00:43:54;;;;;;;7.23;5.97;;;;;;;24.64;100.00;100817.47;2520513;23;20226;-62
2023/08/04 00:44:54;;;;;;;7.03;6.33;;;;;;;24.64;100.00;100820.28;2520418;23;20159;-62
2023/08/04 00:45:55;;;;;;;9.53;5.93;;;;;;;24.57;100.00;100815.91;2520503;23;20162;-62
2023/08/04 00:46:56;;;;;;;7.57;5.87;;;;;;;24.55;100.00;100829.06;2508028;23;20159;-62
2023/08/04 00:47:58;;;;;;;7.37;6.40;;;;;;;24.57;100.00;100815.91;2507369;23;20179;-62
2023/08/04 00:48:59;;;;;;;9.17;6.70;;;;;;;24.54;100.00;100819.81;2520602;23;20503;-62
2023/08/04 00:50:00;;;;;;;9.30;6.20;;;;;;;24.54;100.00;100814.16;2520270;23;20159;-62
2023/08/04 00:51:01;;;;;;;11.13;6.43;;;;;;;24.55;100.00;100823.41;2518536;23;20182;-62
2023/08/04 00:52:02;;;;;;;9.17;7.03;;;;;;;24.58;100.00;100820.34;2507053;23;20305;-62
2023/08/04 00:53:03;;;;;;;7.77;7.00;;;;;;;24.55;100.00;100826.22;2507266;23;20152;-63
2023/08/04 00:54:04;;;;;;;7.27;6.40;;;;;;;24.54;100.00;100824.69;2508515;23;20142;-62
2023/08/04 00:55:06;;;;;;;8.30;6.20;;;;;;;24.55;100.00;100829.84;2508817;23;20175;-62
2023/08/04 00:56:07;;;;;;;14.57;7.23;;;;;;;24.54;100.00;100819.03;2508592;23;20167;-62
2023/08/04 00:57:07;;;;;;;13.47;7.50;;;;;;;24.54;100.00;100821.88;2508523;23;20148;-62
2023/08/04 00:58:08;;;;;;;11.43;7.20;;;;;;;24.24;100.00;100770.00;2508069;23;20501;-63
2023/08/04 00:59:08;;;;;;;8.73;6.77;;;;;;;24.58;100.00;100816.69;2508588;23;20151;-62
2023/08/04 01:00:09;;;;;;;9.33;6.87;;;;;;;23.93;100.00;100723.09;2508373;23;20200;-62
2023/08/04 01:01:10;;;;;;;7.87;6.73;;;;;;;24.13;100.00;100751.03;2507988;23;20152;-62
2023/08/04 01:02:10;;;;;;;10.13;7.17;;;;;;;24.60;100.00;100820.56;2508578;23;20187;-61
2023/08/04 01:03:11;;;;;;;7.60;6.67;;;;;;;24.58;100.00;100825.19;2508126;23;20776;-63
2023/08/04 01:04:11;;;;;;;9.60;7.20;;;;;;;24.54;100.00;100819.03;2508724;23;20294;-62
2023/08/04 01:05:12;;;;;;;11.47;7.23;;;;;;;24.53;100.00;100820.34;2507584;23;20565;-63
2023/08/04 01:06:59;;;;;;;8.93;6.63;;;;;;;24.51;100.00;100814.44;2508072;23;20156;-62
2023/08/04 01:08:23;;;;;;;10.23;6.80;;;;;;;24.49;100.00;100814.94;2508421;23;20248;-62
2023/08/04 01:09:23;;;;;;;7.87;7.07;;;;;;;24.47;100.00;100819.59;2515773;23;20148;-62
2023/08/04 01:10:31;;;;;;;9.73;7.13;;;;;;;24.46;100.00;100820.91;2507621;23;20163;-62
2023/08/04 01:11:40;;;;;;;7.83;6.63;;;;;;;24.45;100.00;100822.16;2508485;23;20144;-62
2023/08/04 01:12:58;;;;;;;7.93;7.13;;;;;;;24.00;100.00;100767.06;2508447;23;20148;-62
2023/08/04 01:14:02;;;;;;;8.43;6.70;;;;;;;24.39;100.00;100812.94;2508108;23;20150;-62
2023/08/04 01:15:02;;;;;;;9.33;7.23;;;;;;;24.36;100.00;100820.41;2508559;23;20148;-62
2023/08/04 01:16:04;;;;;;;9.13;6.70;;;;;;;24.30;100.00;100816.09;2507667;23;20653;-62
2023/08/04 01:17:26;;;;;;;9.00;6.50;;;;;;;24.27;100.00;100823.56;2507870;23;20156;-62
2023/08/04 01:18:26;;;;;;;8.73;6.90;;;;;;;24.22;100.00;100820.75;2508513;23;20132;-62
2023/08/04 01:19:26;;;;;;;9.30;7.20;;;;;;;24.19;100.00;100819.72;2508172;23;20156;-62
2023/08/04 01:20:27;;;;;;;11.80;6.80;;;;;;;24.18;100.00;100821.03;2507679;23;20243;-62
2023/08/04 01:21:38;;;;;;;8.03;6.70;;;;;;;23.81;100.00;100766.06;2508713;23;20555;-62
2023/08/04 01:22:39;;;;;;;8.93;7.13;;;;;;;24.16;100.00;100817.94;2508794;23;20227;-62
2023/08/04 01:23:39;;;;;;;12.03;7.43;;;;;;;24.13;100.00;100815.38;2508636;23;20156;-62
2023/08/04 01:24:40;;;;;;;8.03;7.20;;;;;;;24.09;100.00;100810.00;2508575;23;20152;-62
2023/08/04 01:25:41;;;;;;;7.80;7.00;;;;;;;23.88;100.00;100771.19;2508455;23;20159;-62
2023/08/04 01:26:45;;;;;;;9.77;6.77;;;;;;;24.12;100.00;100811.00;2508460;23;20152;-63
2023/08/04 01:27:52;;;;;;;6.73;6.07;;;;;;;24.08;100.00;100813.34;2508074;23;20633;-62
2023/08/04 01:28:53;;;;;;;7.70;6.90;;;;;;;23.99;100.00;100814.41;2508711;23;20152;-62
2023/08/04 01:29:57;;;;;;;7.67;6.40;;;;;;;23.59;100.00;100749.19;2508795;23;20599;-62
2023/08/04 01:31:00;;;;;;;7.70;6.60;;;;;;;24.07;100.00;100820.28;2507612;23;20156;-62
2023/08/04 01:32:01;;;;;;;8.17;7.37;;;;;;;24.08;100.00;100813.34;2508381;23;20165;-62
2023/08/04 01:33:02;;;;;;;8.50;7.50;;;;;;;23.65;100.00;100756.34;2508368;23;20295;-62
2023/08/04 01:34:03;;;;;;;9.17;7.27;;;;;;;24.09;100.00;100829.03;2507971;23;20152;-62
2023/08/04 01:35:07;;;;;;;12.50;7.77;;;;;;;24.10;100.00;100817.19;2508257;23;20182;-63
2023/08/04 01:36:07;;;;;;;15.47;8.10;;;;;;;24.11;100.00;100817.97;2508464;23;20183;-62
2023/08/04 01:37:08;;;;;;;13.13;8.37;;;;;;;23.62;100.00;100740.41;2508504;23;20159;-62
2023/08/04 01:38:09;;;;;;;12.67;7.73;;;;;;;24.09;100.00;100814.88;2508024;23;20153;-62
2023/08/04 01:39:10;;;;;;;9.30;6.50;;;;;;;24.06;100.00;100819.50;2508558;23;20159;-63
2023/08/04 01:40:12;;;;;;;10.10;7.17;;;;;;;24.04;100.00;100818.50;2508851;23;20152;-62
2023/08/04 01:41:12;;;;;;;9.43;7.10;;;;;;;24.05;100.00;100812.31;2508969;23;20251;-62
2023/08/04 01:42:13;;;;;;;9.90;7.10;;;;;;;24.08;100.00;100813.34;2509212;23;20603;-62
2023/08/04 01:43:13;;;;;;;8.20;7.03;;;;;;;24.07;100.00;100814.63;2509205;23;20184;-62
2023/08/04 01:44:14;;;;;;;10.70;6.77;;;;;;;24.08;100.00;100814.13;2509218;23;20552;-62
2023/08/04 01:45:14;;;;;;;9.53;7.10;;;;;;;24.08;100.00;100819.78;2509211;23;20235;-62
2023/08/04 01:46:14;;;;;;;11.00;7.10;;;;;;;24.07;100.00;100815.41;2509239;23;20155;-62
2023/08/04 01:47:15;;;;;;;7.53;6.40;;;;;;;24.08;100.00;100816.97;2508857;23;20167;-62
2023/08/04 01:48:16;;;;;;;8.47;7.57;;;;;;;24.04;100.00;100813.63;2508511;23;20262;-62
2023/08/04 01:49:16;;;;;;;9.40;7.83;;;;;;;24.09;100.00;100820.53;2509168;23;20618;-62
2023/08/04 01:50:17;;;;;;;8.83;7.10;;;;;;;23.55;100.00;100734.53;2508595;23;20231;-62
2023/08/04 01:51:18;;;;;;;12.83;7.73;;;;;;;24.08;100.00;100816.19;2508879;23;20176;-62
2023/08/04 01:52:18;;;;;;;9.17;7.90;;;;;;;24.08;100.00;100813.34;2509233;23;20176;-62
2023/08/04 01:53:18;;;;;;;10.07;8.00;;;;;;;24.08;100.00;100822.63;2514170;23;20198;-63
2023/08/04 01:54:19;;;;;;;9.37;7.47;;;;;;;24.08;100.00;100819.78;2520784;23;20154;-62
2023/08/04 01:55:19;;;;;;;10.70;7.90;;;;;;;23.63;100.00;100749.66;2521072;23;20219;-63
2023/08/04 01:56:20;;;;;;;8.77;7.20;;;;;;;24.04;100.00;100818.50;2520938;23;20154;-62
2023/08/04 01:57:20;;;;;;;11.27;7.80;;;;;;;24.06;100.00;100816.69;2520697;23;20238;-63
2023/08/04 01:58:21;;;;;;;10.57;7.73;;;;;;;24.05;100.00;100820.81;2521086;23;20202;-62
2023/08/04 01:59:21;;;;;;;11.50;8.10;;;;;;;24.05;100.00;100817.22;2521240;23;20253;-62
2023/08/04 02:00:21;;;;;;;10.23;7.80;;;;;;;24.03;100.00;100823.41;2520355;23;20155;-62
2023/08/04 02:01:22;;;;;;;9.20;7.90;;;;;;;24.04;100.00;100824.16;2520863;23;20165;-63
2023/08/04 02:02:22;;;;;;;10.17;7.90;;;;;;;23.98;100.00;100820.59;2520549;23;20155;-62
2023/08/04 02:03:23;;;;;;;12.93;7.50;;;;;;;23.66;100.00;100766.41;2520994;23;20230;-62
2023/08/04 02:04:23;;;;;;;11.07;7.83;;;;;;;24.01;100.00;100819.56;2520849;23;20155;-62
2023/08/04 02:05:23;;;;;;;12.03;7.93;;;;;;;24.00;100.00;100823.69;2521111;23;20186;-62
2023/08/04 02:06:24;;;;;;;12.43;7.87;;;;;;;23.77;100.00;100796.69;2521055;23;20155;-62
2023/08/04 02:07:24;;;;;;;11.40;8.20;;;;;;;23.99;100.00;100831.41;2520758;23;20182;-62
2023/08/04 02:08:25;;;;;;;10.70;8.57;;;;;;;24.00;100.00;100823.69;2520889;23;20190;-62
2023/08/04 02:09:28;;;;;;;10.60;8.63;;;;;;;23.97;100.00;100831.16;2521017;23;20163;-62
2023/08/04 02:10:29;;;;;;;12.50;8.70;;;;;;;23.98;100.00;100824.19;2520004;23;20155;-62
2023/08/04 02:11:31;;;;;;;9.70;8.70;;;;;;;23.98;100.00;100823.41;2520958;23;20216;-62
2023/08/04 02:12:31;;;;;;;11.70;8.27;;;;;;;23.95;100.00;100825.22;2521157;23;20226;-62
2023/08/04 02:13:31;;;;;;;12.60;8.20;;;;;;;23.97;100.00;100821.88;2520767;23;20151;-62
2023/08/04 02:14:33;;;;;;;11.83;8.33;;;;;;;23.96;100.00;100823.94;2520512;23;20553;-62
2023/08/04 02:15:33;;;;;;;12.83;8.73;;;;;;;23.89;100.00;100815.22;2520976;23;20179;-62
2023/08/04 02:16:34;;;;;;;8.73;7.80;;;;;;;23.18;100.00;100708.66;2520496;23;20151;-62
2023/08/04 02:17:35;;;;;;;9.57;8.57;;;;;;;23.91;100.00;100821.13;2520070;23;20238;-62
2023/08/04 02:18:35;;;;;;;9.17;7.73;;;;;;;23.91;100.00;100824.72;2521046;23;20151;-62
2023/08/04 02:19:35;;;;;;;11.40;8.33;;;;;;;23.91;100.00;100823.97;2521065;23;20500;-63
2023/08/04 02:20:36;;;;;;;8.23;7.43;;;;;;;23.90;100.00;100825.25;2520009;23;20518;-62
2023/08/04 02:21:37;;;;;;;10.07;7.73;;;;;;;23.90;100.00;100828.09;2521030;23;20151;-62
2023/08/04 02:22:37;;;;;;;11.03;8.67;;;;;;;23.91;100.00;100826.78;2520922;23;20187;-62
2023/08/04 02:23:38;;;;;;;9.20;8.07;;;;;;;23.88;100.00;100828.56;2520981;23;20151;-62
2023/08/04 02:24:38;;;;;;;12.93;8.77;;;;;;;23.38;100.00;100748.72;2520940;23;20178;-63
2023/08/04 02:25:38;;;;;;;10.57;8.30;;;;;;;23.87;100.00;100827.03;2521017;23;20214;-62
2023/08/04 02:26:39;;;;;;;10.73;7.83;;;;;;;23.41;100.00;100756.16;2520849;23;20209;-63
2023/08/04 02:27:39;;;;;;;11.63;8.73;;;;;;;23.90;100.00;100828.09;2520426;23;20155;-62
2023/08/04 02:28:40;;;;;;;11.13;8.90;;;;;;;23.89;100.00;100826.56;2520847;23;20159;-62
2023/08/04 02:29:40;;;;;;;10.53;8.73;;;;;;;23.84;100.00;100825.22;2520831;23;20179;-62
2023/08/04 02:30:40;;;;;;;12.37;8.80;;;;;;;23.84;100.00;100825.22;2507170;23;20160;-62
2023/08/04 02:31:41;;;;;;;11.07;8.43;;;;;;;23.84;100.00;100819.56;2507942;23;20179;-62
2023/08/04 02:32:41;;;;;;;9.93;8.40;;;;;;;23.84;100.00;100821.66;2520919;23;20155;-62
2023/08/04 02:33:42;;;;;;;10.77;8.73;;;;;;;23.80;100.00;100827.56;2520701;23;20610;-62
2023/08/04 02:34:42;;;;;;;9.60;8.20;;;;;;;23.37;100.00;100772.63;2520227;23;20515;-62
2023/08/04 02:35:43;;;;;;;9.87;8.67;;;;;;;23.19;100.00;100741.31;2520795;23;20155;-62
2023/08/04 02:36:43;;;;;;;9.37;7.63;;;;;;;23.76;100.00;100826.28;2520844;23;20502;-62
2023/08/04 02:37:43;;;;;;;10.07;8.30;;;;;;;23.75;100.00;100825.50;2520515;23;20179;-62
2023/08/04 02:38:44;;;;;;;9.70;7.80;;;;;;;23.74;100.00;100835.28;2520767;23;20155;-62
2023/08/04 02:39:45;;;;;;;10.27;7.80;;;;;;;23.76;100.00;100826.28;2520918;23;20175;-62
2023/08/04 02:40:45;;;;;;;11.87;7.70;;;;;;;23.71;100.00;100827.84;2519914;23;20562;-63
2023/08/04 02:41:46;;;;;;;8.77;7.67;;;;;;;23.21;100.00;100750.03;2521093;23;20159;-62
2023/08/04 02:42:46;;;;;;;8.63;7.70;;;;;;;23.58;100.00;100809.84;2520898;23;20187;-63
2023/08/04 02:43:46;;;;;;;9.40;7.87;;;;;;;23.72;100.00;100834.25;2521005;23;20151;-63
2023/08/04 02:44:52;;;;;;;10.13;8.07;;;;;;;23.59;100.00;100814.25;2520577;23;20234;-62
2023/08/04 02:45:53;;;;;;;9.67;7.93;;;;;;;23.67;100.00;100826.56;2520331;23;20563;-62
2023/08/04 02:46:53;;;;;;;9.63;8.20;;;;;;;23.65;100.00;100824.25;2520891;23;20159;-62
2023/08/04 02:47:53;;;;;;;9.10;7.63;;;;;;;23.12;100.00;100741.78;2520275;23;20242;-63
2023/08/04 02:48:55;;;;;;;8.37;7.47;;;;;;;23.66;100.00;100836.34;2521017;23;20151;-62
2023/08/04 02:49:55;;;;;;;9.57;7.47;;;;;;;23.66;100.00;100825.81;2520630;23;20178;-63
2023/08/04 02:51:06;;;;;;;8.33;7.47;;;;;;;23.61;100.00;100834.28;2519841;23;20150;-62
2023/08/04 02:52:08;;;;;;;9.57;7.43;;;;;;;23.59;100.00;100831.97;2521049;23;20235;-62
2023/08/04 02:53:09;;;;;;;12.97;7.60;;;;;;;23.61;100.00;100831.47;2520464;23;20158;-62
2023/08/04 02:54:10;;;;;;;10.00;7.97;;;;;;;23.62;100.00;100830.94;2520810;23;20159;-62
2023/08/04 02:55:11;;;;;;;10.03;7.43;;;;;;;23.61;100.00;100826.59;2520647;23;20147;-63
2023/08/04 02:56:16;;;;;;;12.17;8.17;;;;;;;23.59;100.00;100834.06;2520799;23;20177;-62
2023/08/04 02:57:17;;;;;;;8.93;7.93;;;;;;;23.58;100.00;100838.16;2520520;23;20618;-62
2023/08/04 02:58:17;;;;;;;9.67;8.37;;;;;;;23.61;100.00;100834.28;2520761;23;20482;-62
2023/08/04 02:59:18;;;;;;;10.13;7.77;;;;;;;23.60;100.00;100841.25;2520826;23;20564;-63
2023/08/04 03:00:18;;;;;;;9.13;7.77;;;;;;;23.62;100.00;100835.84;2519564;23;20155;-62
2023/08/04 03:01:18;;;;;;;9.43;8.07;;;;;;;23.59;100.00;100839.72;2507790;23;20573;-62
2023/08/04 03:02:19;;;;;;;9.97;7.87;;;;;;;23.58;100.00;100836.09;2508085;23;20152;-62
2023/08/04 03:03:20;;;;;;;9.03;8.00;;;;;;;23.59;100.00;100839.72;2508021;23;20156;-62
2023/08/04 03:04:20;;;;;;;12.10;8.60;;;;;;;23.58;100.00;100838.16;2496045;23;20647;-62
2023/08/04 03:05:21;;;;;;;9.13;7.90;;;;;;;23.57;100.00;100831.72;2507914;23;20492;-63
2023/08/04 03:06:21;;;;;;;9.20;8.10;;;;;;;23.57;100.00;100833.78;2520732;23;20225;-62
2023/08/04 03:07:22;;;;;;;9.27;8.10;;;;;;;23.47;100.00;100827.63;2520371;23;20191;-62
2023/08/04 03:08:22;;;;;;;10.23;8.10;;;;;;;23.55;100.00;100842.03;2520652;23;20182;-62
2023/08/04 03:09:23;;;;;;;12.43;8.80;;;;;;;23.37;100.00;100797.28;2521019;23;20167;-62
2023/08/04 03:10:23;;;;;;;10.23;8.40;;;;;;;23.56;100.00;100832.25;2519996;23;20234;-62
2023/08/04 03:11:24;;;;;;;10.37;8.20;;;;;;;23.56;100.00;100838.69;2520718;23;20155;-62
2023/08/04 03:12:25;;;;;;;10.77;8.37;;;;;;;23.42;100.00;100822.75;2520718;23;20598;-62
2023/08/04 03:13:26;;;;;;;9.23;7.63;;;;;;;23.55;100.00;100833.53;2520596;23;20513;-62
2023/08/04 03:14:26;;;;;;;10.53;8.83;;;;;;;23.16;100.00;100787.53;2519998;23;20887;-62
2023/08/04 03:15:26;;;;;;;11.97;9.10;;;;;;;23.16;100.00;100776.22;2520493;23;20509;-62
2023/08/04 03:16:27;;;;;;;10.83;8.70;;;;;;;23.54;100.00;100832.00;2520692;23;20151;-62
2023/08/04 03:17:28;;;;;;;12.70;9.00;;;;;;;23.18;100.00;100790.66;2520293;23;20155;-62
2023/08/04 03:18:29;;;;;;;12.70;8.63;;;;;;;23.44;100.00;100819.41;2520921;23;20226;-62
2023/08/04 03:19:29;;;;;;;11.77;8.77;;;;;;;23.53;100.00;100836.88;2520719;23;20159;-62
2023/08/04 03:20:36;;;;;;;11.13;8.97;;;;;;;23.50;100.00;100832.25;2519774;23;20158;-62
2023/08/04 03:21:36;;;;;;;9.40;8.50;;;;;;;23.51;100.00;100842.28;2520845;23;20489;-62
2023/08/04 03:23:56;;;;;;;12.60;9.27;;;;;;;23.45;100.00;100837.91;2520838;23;20178;-62
2023/08/04 03:24:56;;;;;;;10.07;9.07;;;;;;;23.00;100.00;100786.25;2520450;23;20155;-62
2023/08/04 03:25:56;;;;;;;11.20;8.93;;;;;;;23.40;100.00;100841.53;2520472;23;20182;-62
2023/08/04 03:26:57;;;;;;;11.80;9.00;;;;;;;23.40;100.00;100838.69;2520617;23;20151;-62
2023/08/04 03:27:57;;;;;;;12.17;9.30;;;;;;;23.39;100.00;100840.75;2520085;23;20483;-62
2023/08/04 03:28:58;;;;;;;13.57;9.30;;;;;;;23.39;100.00;100842.81;2519729;23;20159;-62
2023/08/04 03:29:58;;;;;;;11.50;8.67;;;;;;;23.37;100.00;100846.16;2520691;23;20155;-62
2023/08/04 03:30:58;;;;;;;11.73;8.87;;;;;;;23.36;100.00;100841.00;2519825;23;20158;-62
2023/08/04 03:31:59;;;;;;;13.17;9.07;;;;;;;23.34;100.00;100835.84;2520602;23;20206;-61
2023/08/04 03:32:59;;;;;;;17.73;10.10;;;;;;;22.95;100.00;100781.38;2520760;23;20186;-63
2023/08/04 03:34:00;;;;;;;13.83;9.20;;;;;;;23.38;100.00;100846.94;2520270;23;20159;-62
2023/08/04 03:35:00;;;;;;;11.03;9.93;;;;;;;23.36;100.00;100846.66;2520591;23;20155;-62
2023/08/04 03:36:00;;;;;;;13.17;9.83;;;;;;;22.83;100.00;100776.97;2520422;23;20182;-63
2023/08/04 03:37:01;;;;;;;13.67;9.37;;;;;;;22.47;100.00;100729.97;2520634;23;20206;-62
2023/08/04 03:38:03;;;;;;;12.43;9.30;;;;;;;23.16;100.00;100836.38;2520264;23;20175;-63
2023/08/04 03:39:03;;;;;;;11.40;9.37;;;;;;;;;;2507940;23;20156;-62
2023/08/04 03:40:04;;;;;;;12.13;9.90;;;;;;;23.24;100.00;100845.13;2508012;23;20587;-62
2023/08/04 03:41:04;;;;;;;10.40;9.40;;;;;;;23.25;100.00;100841.00;2519913;23;20147;-62
2023/08/04 03:42:06;;;;;;;10.83;9.13;;;;;;;23.18;100.00;100830.97;2520630;23;20162;-62
2023/08/04 03:43:06;;;;;;;15.50;9.53;;;;;;;23.16;100.00;100842.03;2519918;23;20495;-62
2023/08/04 03:44:07;;;;;;;13.00;10.10;;;;;;;22.26;100.00;100714.50;2520607;23;20151;-62
2023/08/04 03:45:08;;;;;;;13.80;10.10;;;;;;;23.16;100.00;100852.53;2520498;23;20159;-62
2023/08/04 03:46:08;;;;;;;14.17;10.87;;;;;;;23.08;100.00;100840.97;2520448;23;20170;-62
2023/08/04 03:47:08;;;;;;;14.67;11.07;;;;;;;23.13;100.00;100851.53;2520789;23;20151;-62
2023/08/04 03:48:09;;;;;;;14.93;10.40;;;;;;;23.13;100.00;100853.59;2520012;23;20178;-62
2023/08/04 03:49:09;;;;;;;17.17;11.00;;;;;;;22.97;100.00;100832.50;2520530;23;20151;-62
2023/08/04 03:50:10;;;;;;;13.37;11.20;;;;;;;23.14;100.00;100850.22;2520026;23;20151;-62
2023/08/04 03:51:10;;;;;;;11.70;10.50;;;;;;;23.13;100.00;100851.53;2520359;23;20186;-62
2023/08/04 03:52:11;;;;;;;13.07;10.70;;;;;;;22.95;100.00;100826.59;2520698;23;20179;-62
2023/08/04 03:53:11;;;;;;;12.43;11.17;;;;;;;22.76;100.00;100804.97;2520312;23;20468;-62
2023/08/04 03:54:11;;;;;;;12.13;10.83;;;;;;;23.13;100.00;100854.34;2520489;23;20170;-62
2023/08/04 03:55:12;;;;;;;13.83;10.60;;;;;;;22.71;100.00;100788.78;2520750;23;20151;-61
2023/08/04 03:56:12;;;;;;;13.40;11.20;;;;;;;23.12;100.00;100854.84;2520320;23;20281;-62
2023/08/04 03:57:13;;;;;;;12.83;10.47;;;;;;;22.75;100.00;100807.03;2519815;23;20151;-62
2023/08/04 03:58:13;;;;;;;12.57;10.90;;;;;;;23.14;100.00;100852.31;2520534;23;20151;-62
2023/08/04 03:59:13;;;;;;;11.60;10.50;;;;;;;23.17;100.00;100856.91;2520703;23;20456;-62
2023/08/04 04:00:14;;;;;;;13.57;11.20;;;;;;;23.17;100.00;100854.88;2520192;23;20155;-62
2023/08/04 04:01:14;;;;;;;13.63;11.13;;;;;;;23.20;100.00;100861.59;2520159;23;20616;-62
2023/08/04 04:02:15;;;;;;;14.03;10.87;;;;;;;23.23;100.00;100858.50;2520187;23;20609;-62
2023/08/04 04:03:15;;;;;;;12.67;10.50;;;;;;;23.15;100.00;100848.19;2520624;23;20155;-61
2023/08/04 04:04:16;;;;;;;10.87;9.83;;;;;;;23.12;100.00;100854.84;2520555;23;20447;-62
2023/08/04 04:05:16;;;;;;;10.73;9.63;;;;;;;23.18;100.00;100861.34;2520155;23;20166;-62
2023/08/04 04:06:17;;;;;;;11.50;9.80;;;;;;;23.18;100.00;100861.34;2520323;23;20155;-62
2023/08/04 04:07:17;;;;;;;10.10;9.10;;;;;;;22.75;100.00;100792.13;2520114;23;20221;-62
2023/08/04 04:08:18;;;;;;;11.30;9.50;;;;;;;23.22;100.00;100864.66;2520426;23;20594;-62
2023/08/04 04:09:18;;;;;;;9.80;8.80;;;;;;;23.23;100.00;100866.97;2520470;23;20187;-62
2023/08/04 04:10:18;;;;;;;11.83;9.43;;;;;;;23.26;100.00;100856.69;2519872;23;20175;-62
2023/08/04 04:11:19;;;;;;;10.97;9.73;;;;;;;23.26;100.00;100865.16;2519530;23;20158;-63
2023/08/04 04:12:19;;;;;;;10.43;9.20;;;;;;;22.67;100.00;100771.34;2520579;23;20158;-62
2023/08/04 04:13:20;;;;;;;12.00;9.10;;;;;;;23.30;100.00;100863.66;2520445;23;20148;-62
2023/08/04 04:14:20;;;;;;;11.30;9.10;;;;;;;23.32;100.00;100869.56;2520363;23;20629;-62
2023/08/04 04:15:20;;;;;;;10.43;9.00;;;;;;;23.38;100.00;100870.31;2520483;23;20154;-62
2023/08/04 04:16:21;;;;;;;11.10;9.00;;;;;;;23.42;100.00;100867.22;2520221;23;20148;-62
2023/08/04 04:17:21;;;;;;;13.33;9.20;;;;;;;23.25;100.00;100838.19;2520041;23;20222;-62
2023/08/04 04:18:22;;;;;;;11.63;10.10;;;;;;;23.45;100.00;100875.47;2520623;23;20155;-62
2023/08/04 04:19:22;;;;;;;11.53;9.47;;;;;;;23.45;100.00;100875.47;2520861;23;20641;-62
2023/08/04 04:20:23;;;;;;;10.13;9.13;;;;;;;23.48;100.00;100874.44;2519848;23;20278;-63
2023/08/04 04:21:23;;;;;;;9.90;8.90;;;;;;;23.49;100.00;100878.03;2520817;23;20161;-63
2023/08/04 04:22:23;;;;;;;11.67;8.87;;;;;;;23.52;100.00;100874.94;2520472;23;20158;-62
2023/08/04 04:23:24;;;;;;;12.83;9.30;;;;;;;23.55;100.00;100885.22;2520481;23;20241;-62
2023/08/04 04:24:24;;;;;;;14.70;9.60;;;;;;;23.56;100.00;100874.69;2520427;23;20151;-62
2023/08/04 04:25:25;;;;;;;14.03;9.40;;;;;;;23.59;100.00;100868.75;2520163;23;20163;-62
2023/08/04 04:26:25;;;;;;;14.37;9.90;;;;;;;23.64;100.00;100870.81;2507295;23;20164;-62
2023/08/04 04:27:25;;;;;;;16.80;9.60;;;;;;;23.67;100.00;100866.94;2507679;23;20545;-62
2023/08/04 04:28:26;;;;;;;14.60;9.40;;;;;;;23.56;100.00;100849.22;2520448;23;20206;-63
2023/08/04 04:29:26;;;;;;;15.10;9.97;;;;;;;23.44;100.00;100844.88;2518585;23;20158;-63
2023/08/04 04:30:27;;;;;;;15.07;9.60;;;;;;;23.73;100.00;100864.88;2517333;23;20167;-62
2023/08/04 04:31:27;;;;;;;14.20;8.80;;;;;;;23.95;100.00;100867.69;2519550;23;20186;-57
2023/08/04 04:32:27;;;;;;;12.53;7.83;;;;;;;24.54;100.00;100872.88;2520543;23;20151;-58
2023/08/04 04:33:28;;;;;;;4.43;4.03;;;;;;;24.87;100.00;100869.88;2520567;23;20560;-58
2023/08/04 04:34:29;;;;;;;7.80;5.83;;;;;;;25.41;100.00;100867.94;2517494;23;20289;-58
2023/08/04 04:35:29;;;;;;;9.03;5.70;;;;;;;25.91;100.00;100852.00;2518957;23;20158;-57
2023/08/04 04:36:29;;;;;;;6.53;5.80;;;;;;;26.03;100.00;100858.31;2506861;23;20211;-58
2023/08/04 04:37:30;;;;;;;7.93;5.57;;;;;;;25.98;100.00;100859.91;2507148;23;20227;-58
2023/08/04 04:38:30;;;;;;;8.50;6.20;;;;;;;26.19;100.00;100857.34;2519999;23;20154;-58
2023/08/04 04:39:31;;;;;;;11.90;7.20;;;;;;;26.25;100.00;100858.06;2520159;23;20681;-58
2023/08/04 04:40:31;;;;;;;14.43;7.97;;;;;;;26.22;100.00;100856.28;2519451;23;20162;-59